Hugo Santa Cruz

Recruteur - Olimpia
29 Avr 2027
Jeudi
Processus

Personnalité

Adaptabilité (9) Ambition (7) Controverse (5) Loyauté (19) Pression (18) Professionnalisme (16) Sportivité (11) Tempérament (12)

Profil

Style d'entraînement Démocratique
Diplôme National A
Détermination 7
Gestion des joueurs 7
Motivation 5
Discipline 7
Satisfaction professionnelle
100%
Fatigue
0%
Rôle Recruteur
Salaire 20.8K p/s
Contrat 14.03.2029

Performance

Comportement Bon
Efficacité de l'entraînement
36%
Développement des joueurs
55%
Prévention des blessures
65%
Mise en place tactique
25%

Événements récents

A évalué un joueur maintenant
A évalué un joueur 7j
A participé à une réunion de recrutement 7j
A évalué un joueur 7j
A évalué un joueur 7j
A évalué un joueur 7j
A évalué un joueur 14j
A évalué un joueur 14j

Suivi en cours

139
Joueur Club Statut Capacité Confiance Observé Dernière observation Dernier vote
Strahinja Manojlović Radnicki Nis Actif 104 / 104 40% 2 27.04.2027 -
Fahad Hassan Al Shabab Actif 128 / 116 40% 1 27.04.2027 -
Matteo Rizzo Cosenza Actif 108 / 107 40% 1 27.04.2027 -
Anton Zhylkin Karpaty Actif 97 / 100 40% 1 26.04.2027 -
William Rovida Pro Patria Actif 107 / 108 40% 1 26.04.2027 -
Killian Cahill Leyton Orient Actif 109 / 109 40% 1 26.04.2027 -
Facundo Vila Estudiantes Actif 100 / 114 40% 3 25.04.2027 -
Joe Whitworth Wigan Athletic Actif 117 / 125 40% 1 25.04.2027 -
Elia Boseggia Novara Actif 107 / 120 40% 1 25.04.2027 -
Oleksandr Saputin Poltava Actif 115 / 117 40% 3 23.04.2027 -
Ludovico Del Sorbo Sorrento Actif 109 / 98 40% 2 23.04.2027 -
Jan Koutný Sigma Olomouc Actif 107 / 110 40% 2 22.04.2027 -
Filip Marschall Stevenage Actif 113 / 109 40% 3 22.04.2027 -
Juan Diego Castillo Vitoria Guimaraes Actif 117 / 112 40% 2 19.04.2027 -
Valerio Boffelli Cavese Actif 102 / 112 40% 1 19.04.2027 -
Sergio Barlocco Trento Actif 115 / 100 40% 2 18.04.2027 -
Bruno Antúnez Boston River Actif 112 / 118 40% 1 18.04.2027 -
Deniz Ertaş Konyaspor Actif 129 / 114 40% 1 14.04.2027 -
Kostantis Tzolakis Hull City Actif 136 / 148 40% 1 28.03.2027 -
Bart Verbruggen Brighton Actif 152 / 164 40% 1 26.03.2027 -
Sławomir Abramowicz Jagiellonia Actif 122 / 115 40% 1 26.03.2027 -
Samuele Vitale Ascoli Actif 115 / 119 40% 1 25.03.2027 -
Kyrylo Fesiun Shakhtar Actif 127 / 118 40% 1 19.03.2027 -
Tomáš Frühwald Bohemians 1905 Actif 108 / 110 40% 1 19.03.2027 -
Marcelo Fernández Libertad Perdu 111 / 118 83% 1 01.12.2026 -
Veljko Birmančević Ferencvaros Perdu 134 / 121 40% 1 30.11.2026 -
Everton Bala Levski Actif 127 / 130 40% 1 30.11.2026 -
Williams Manyama SuperSport United Actif 114 / 122 40% 2 29.11.2026 -
Mikkel Damsgaard Brentford Actif 144 / 147 40% 1 29.11.2026 -
Christian Krasnodar Actif 134 / 123 40% 3 28.11.2026 -
Lucas Arce CFR Cluj Actif 119 / 118 40% 3 28.11.2026 -
Ben Sheaf Wrexham Actif 129 / 135 40% 1 28.11.2026 -
Franco Zapiola Platense Actif 127 / 118 40% 3 27.11.2026 -
Tiago Palacios Estudiantes Actif 129 / 133 40% 1 27.11.2026 -
Isaiah Jones Luton Town Actif 122 / 130 40% 1 26.11.2026 -
Derensili Sanches Fernandes Huddersfield Town Actif 119 / 119 40% 1 26.11.2026 -
Rubén Duarte Legia Actif 135 / 128 40% 6 25.11.2026 -
Israel Reyes CSKA Moscow Actif 139 / 138 40% 3 24.11.2026 -
Dara O'Shea Ipswich Town Actif 142 / 131 40% 1 24.11.2026 -
Agustín Cardozo Lanús Actif 125 / 129 40% 1 24.11.2026 -
Finn Azaz Southampton Actif 125 / 140 40% 1 24.11.2026 -
Oston O'runov Persepolis Actif 118 / 119 40% 1 24.11.2026 -
Ryan Sessegnon Fulham Actif 149 / 145 40% 1 22.11.2026 -
Tomás O'Connor Gimnasia y Esgrima Perdu 121 / 121 40% 1 22.11.2026 -
Rodrigo Herrera Newell's Old Boys Actif 119 / 113 40% 2 18.11.2026 -
Adrien Truffert Bournemouth Actif 155 / 160 40% 1 18.11.2026 -
Petar Stanić Ludogorets Actif 129 / 146 40% 1 18.11.2026 -
Nahuel Banegas Tigre Actif 125 / 129 40% 1 18.11.2026 -
Lucas Carrizo Newell's Old Boys Actif 129 / 120 40% 1 18.11.2026 -
Benjamin White Arsenal Actif 156 / 158 40% 1 16.11.2026 -
Emanuel Coronel Rosario Central Actif 130 / 132 40% 1 16.11.2026 -
Matías Galarza Talleres Actif 125 / 127 40% 3 15.11.2026 -
Siro Rosané Estudiantes Actif 118 / 123 40% 1 15.11.2026 -
Sergio Arribas Almería Actif 131 / 149 40% 2 14.11.2026 -
Sayfallah Ltaief Cracovia Actif 120 / 109 40% 1 14.11.2026 -
Keagan Mothiba SuperSport United Actif 112 / 117 40% 1 14.11.2026 -
Mohammad Mehdi Mohebi Persepolis Actif 112 / 128 40% 2 12.11.2026 -
Ignacio Rodríguez Racing Club Actif 122 / 131 40% 2 12.11.2026 -
Alex Luna Instituto Actif 127 / 123 40% 1 12.11.2026 -
Leandro Lozano Boca Juniors Actif 124 / 127 40% 2 11.11.2026 -
Tomás Silva Platense Actif 128 / 134 40% 1 11.11.2026 -
Nicolás Tripichio San Lorenzo Actif 130 / 132 40% 1 08.11.2026 -
Sebastián Valdez Independiente Actif 125 / 125 40% 1 02.11.2026 -
Hernán de la Fuente Instituto Actif 122 / 124 40% 1 02.11.2026 -
Adrián Sánchez Belgrano Actif 124 / 118 40% 1 01.11.2026 -
Emanuel Mammana Vélez Actif 129 / 127 40% 1 01.11.2026 -
Joaquín García Vélez Actif 124 / 122 40% 1 01.11.2026 -
Facundo Zabala Independiente Actif 121 / 130 40% 1 29.10.2026 -
Aarón Molinas Defensa y Justicia Actif 125 / 130 40% 1 29.10.2026 -
Matías Pérez Racing Club Actif 129 / 123 40% 1 28.10.2026 -
Franco Ibarra Rosario Central Actif 133 / 126 40% 1 28.10.2026 -
Eric Meza Estudiantes Actif 122 / 123 40% 1 28.10.2026 -
Felipe Peña Biafore Lanús Actif 124 / 123 40% 2 26.10.2026 -
Sebastián Medina Tigre Actif 115 / 123 40% 1 26.10.2026 -
Franco Díaz Temperley Actif 121 / 118 40% 1 26.10.2026 -
Iñaki Larthirigoyen San Telmo Actif 114 / 117 40% 1 26.10.2026 -
Mateo Mendoza Godoy Cruz Actif 122 / 134 40% 1 24.10.2026 -
Sergio Reguilón Inter Miami CF Actif 137 / 146 40% 1 24.10.2026 -
Bénie Traoré New York City Actif 131 / 131 40% 2 23.10.2026 -
Erison Kawasaki Frontale Actif 138 / 141 40% 2 22.10.2026 -
Nino Zenit Actif 143 / 134 40% 2 21.10.2026 -
Kimito Nono Sanfrecce Hiroshima Actif 119 / 138 40% 1 21.10.2026 -
David Miculescu FCSB Actif 122 / 129 40% 1 20.10.2026 -
Mandla Erasmus SuperSport United Actif 120 / 115 40% 1 19.10.2026 -
Nathan-Dylan Saliba Villarreal Actif 116 / 133 40% 1 19.10.2026 -
Jordan Lotomba Bloemfontein Celtic Actif 124 / 128 40% 1 18.10.2026 -
Nicolás Fernández Mercau Shakhtar Actif 131 / 132 40% 1 18.10.2026 -
Miguel Navarro Colorado Rapids Actif 116 / 120 40% 1 17.10.2026 -
Obinna Nwobodo FC Cincinnati Actif 125 / 131 40% 1 17.10.2026 -
Antonio Galeano Remo Stars Actif 122 / 124 40% 2 15.10.2026 -
Jens Petter Hauge Bodo/Glimt Actif 135 / 139 40% 1 15.10.2026 -
Facundo Mura Inter Miami CF Actif 120 / 131 40% 1 14.10.2026 -
Marcelo Saracchi Houston Dynamo Actif 125 / 127 40% 3 13.10.2026 -
Roger Fernandes Al-Ittihad Actif 126 / 145 40% 1 13.10.2026 -
Caio Vidal Ludogorets Actif 125 / 138 40% 1 11.10.2026 -
Tadeo Allende Inter Miami CF Actif 122 / 118 40% 2 10.10.2026 -
Telasco Segovia Inter Miami CF Actif 135 / 123 40% 1 10.10.2026 -
Rasmus Kristensen FC Midtjylland Actif 148 / 142 40% 1 07.10.2026 -
Shaq Moore FC Dallas Actif 117 / 125 40% 1 07.10.2026 -
Liel Abada Charlotte Football Club Actif 136 / 143 40% 2 06.10.2026 -
James Sands New York City Actif 131 / 137 40% 1 06.10.2026 -
Bradley Tau SuperSport United Actif 121 / 132 40% 2 05.10.2026 -
Anton Salétros Chicago Fire Actif 125 / 116 40% 1 05.10.2026 -
Aubrey Modiba Mamelodi Sundowns Actif 129 / 132 40% 1 05.10.2026 -
Gustavo Mantuan Zenit Actif 136 / 139 40% 1 04.10.2026 -
João Gomes Aston Villa Actif 136 / 126 40% 1 04.10.2026 -
Aaron Herrera Charlotte Football Club Actif 123 / 131 40% 1 02.10.2026 -
Emir Karić Sporting Kansas City Actif 119 / 123 40% 1 02.10.2026 -
Martín Ojeda Orlando City Actif 131 / 134 40% 1 02.10.2026 -
Ralph Orquin Seattle Sounders Actif 115 / 114 40% 2 29.09.2026 -
Sead Hakšabanović Malmo FF Actif 119 / 118 40% 1 29.09.2026 -
Rob Holding Colorado Rapids Actif 127 / 113 40% 2 28.09.2026 -
Bryan Ramírez FC Cincinnati Actif 136 / 143 40% 1 28.09.2026 -
Conrad Wallem Austria Wien Actif 122 / 132 40% 2 27.09.2026 -
Matías Pellegrini Vélez Actif 116 / 118 40% 1 26.09.2026 -
Griffin Yow New England Revolution Actif 130 / 140 40% 1 26.09.2026 -
Mayckel Lahdo Malmo FF Actif 122 / 118 40% 1 26.09.2026 -
Lucas Sanabria LA Galaxy Actif 127 / 128 40% 2 23.09.2026 -
Andrés Cubas Vancouver Whitecaps Actif 117 / 138 40% 1 23.09.2026 -
Joao Ortiz Portland Timbers Actif 126 / 137 40% 1 22.09.2026 -
Patrick Berg Bodo/Glimt Actif 140 / 145 40% 1 22.09.2026 -
David Brekalo Orlando City Actif 125 / 120 40% 1 22.09.2026 -
Lasse Berg Johnsen Sporting Kansas City Actif 131 / 136 40% 1 21.09.2026 -
Duncan McGuire Houston Dynamo Actif 125 / 111 40% 1 15.09.2026 -
Esequiel Barco Spartak Moscow Actif 134 / 142 40% 1 15.09.2026 -
Harry Toffolo Charlotte Football Club Actif 130 / 108 40% 1 14.09.2026 -
Malte Amundsen Columbus Crew Actif 116 / 119 40% 1 14.09.2026 -
Alhassan Yusuf New England Revolution Actif 123 / 111 40% 1 11.09.2026 -
Hassani Dotson Seattle Sounders Actif 127 / 127 40% 1 11.09.2026 -
Nectar Triantis Minnesota United FC Actif 124 / 138 40% 1 09.09.2026 -
Rodrigo Huescas FC Copenhagen Actif 133 / 135 40% 1 08.09.2026 -
Juan Escobar Melgar Actif 127 / 127 40% 1 08.09.2026 -
Sergej Milinković-Savić Al-Hilal Actif 149 / 142 40% 1 08.09.2026 -
Keaton Parks Helsingborg Actif 130 / 124 40% 1 07.09.2026 -
Matías Flores River Plate Actif 98 / 101 30% 1 / 1m 19.08.2026 -
Aldo Olmedo Actif 98 / 98 30% 1 / 1m 19.08.2026 -
Khuliso Mudau Mamelodi Sundowns Actif 133 / 121 40% 1 04.08.2026 -
Musa Barrow Al-Khaleej Actif 133 / 148 40% 1 01.08.2026 -
Maurits Kjærgaard Red Bull Salzburg Actif 119 / 144 40% 1 01.08.2026 -